Observation data for Post on 03/09/2018      Previous  Date       Current Mesonet Observations  Soil Data  Daily Summary Page  Observations in Plain Language
KPT1 090600Z 18013G18KT 13/M03 A299 RMK A01 T01291034  RH  032%=      5-min Rain = 0
KPT1 090605Z 17013G18KT 13/M03 A299 RMK A01 T01291034  RH  032%=      5-min Rain = 0
KPT1 090610Z 18014G21KT 13/M03 A2989 RMK A01 T01291034  RH  032%=      5-min Rain = 0
KPT1 090615Z 18014G22KT 13/M03 A2989 RMK A01 T01281034  RH  033%=      5-min Rain = 0
KPT1 090620Z 18015G21KT 13/M03 A2989 RMK A01 T01291034  RH  033%=      5-min Rain = 0
KPT1 090625Z 18013G18KT 13/M03 A2989 RMK A01 T01271034  RH  033%=      5-min Rain = 0
KPT1 090630Z 18013G18KT 13/M03 A2989 RMK A01 T01261034  RH  033%=      5-min Rain = 0
KPT1 090635Z 18013G18KT 13/M03 A2989 RMK A01 T01251034  RH  033%=      5-min Rain = 0
KPT1 090640Z 18013G18KT 13/M03 A2989 RMK A01 T01251033  RH  033%=      5-min Rain = 0
KPT1 090645Z 18014KT 13/M03 A2989 RMK A01 T01251033  RH  033%=      5-min Rain = 0
KPT1 090650Z 18013G20KT 13/M03 A2989 RMK A01 T01251032  RH  034%=      5-min Rain = 0
KPT1 090655Z 19013G18KT 12/M03 A2989 RMK A01 T01241032  RH  034%=      5-min Rain = 0
KPT1 090700Z 19013G18KT 12/M03 A2988 RMK A01 T01231031  RH  034%=      5-min Rain = 0
KPT1 090705Z 19013G18KT 12/M03 A2988 RMK A01 T01231031  RH  034%=      5-min Rain = 0
KPT1 090710Z 19014G20KT 12/M03 A2988 RMK A01 T01231031  RH  034%=      5-min Rain = 0
KPT1 090715Z 19015G21KT 12/M03 A2988 RMK A01 T01231031  RH  035%=      5-min Rain = 0
KPT1 090720Z 19015G21KT 12/M03 A2988 RMK A01 T01221030  RH  035%=      5-min Rain = 0
KPT1 090725Z 19013G18KT 12/M03 A2988 RMK A01 T01211029  RH  035%=      5-min Rain = 0
KPT1 090730Z 19014G20KT 12/M03 A2988 RMK A01 T01201029  RH  036%=      5-min Rain = 0
KPT1 090735Z 20015G23KT 12/M03 A2988 RMK A01 T01201028  RH  036%=      5-min Rain = 0
KPT1 090740Z 20013G19KT 12/M03 A2988 RMK A01 T01181028  RH  036%=      5-min Rain = 0
KPT1 090745Z 20012G18KT 12/M03 A2987 RMK A01 T01181027  RH  037%=      5-min Rain = 0
KPT1 090750Z 20014G20KT 12/M03 A2987 RMK A01 T01181026  RH  037%=      5-min Rain = 0
KPT1 090755Z 20012G22KT 12/M03 A2987 RMK A01 T01181026  RH  037%=      5-min Rain = 0
KPT1 090800Z 20012G17KT 12/M03 A2987 RMK A01 T01181025  RH  037%=      5-min Rain = 0
KPT1 090805Z 20011G16KT 12/M02 A2987 RMK A01 T01171024  RH  037%=      5-min Rain = 0
KPT1 090810Z 20013G18KT 12/M02 A2987 RMK A01 T01171023  RH  038%=      5-min Rain = 0
KPT1 090815Z 21012G19KT 12/M02 A2987 RMK A01 T01181023  RH  038%=      5-min Rain = 0
KPT1 090820Z 20014G20KT 12/M02 A2986 RMK A01 T01181021  RH  038%=      5-min Rain = 0
KPT1 090825Z 20013G19KT 12/M02 A2986 RMK A01 T01191020  RH  038%=      5-min Rain = 0
KPT1 090830Z 21012G19KT 12/M02 A2986 RMK A01 T01181020  RH  039%=      5-min Rain = 0
KPT1 090835Z 20013G19KT 12/M02 A2986 RMK A01 T01181019  RH  039%=      5-min Rain = 0
KPT1 090840Z 20011G17KT 12/M02 A2986 RMK A01 T01181019  RH  039%=      5-min Rain = 0
KPT1 090845Z 20011KT 12/M02 A2986 RMK A01 T01171018  RH  039%=      5-min Rain = 0
KPT1 090850Z 20009KT 12/M02 A2986 RMK A01 T01161018  RH  040%=      5-min Rain = 0
KPT1 090855Z 21011G16KT 12/M02 A2986 RMK A01 T01161017  RH  040%=      5-min Rain = 0
KPT1 090900Z 21010G15KT 12/M02 A2986 RMK A01 T01161017  RH  040%=      5-min Rain = 0
KPT1 090905Z 21011G16KT 12/M02 A2985 RMK A01 T01161016  RH  040%=      5-min Rain = 0
KPT1 090910Z 21011G16KT 12/M02 A2985 RMK A01 T01161015  RH  041%=      5-min Rain = 0
KPT1 090915Z 21010G16KT 12/M02 A2985 RMK A01 T01151015  RH  041%=      5-min Rain = 0
KPT1 090920Z 21011G16KT 12/M01 A2985 RMK A01 T01151014  RH  041%=      5-min Rain = 0
KPT1 090925Z 21009G15KT 11/M01 A2985 RMK A01 T01141014  RH  041%=      5-min Rain = 0
KPT1 090930Z 21009G14KT 11/M01 A2984 RMK A01 T01141014  RH  042%=      5-min Rain = 0
KPT1 090935Z 21009G17KT 11/M01 A2984 RMK A01 T01121013  RH  042%=      5-min Rain = 0
KPT1 090940Z 20009G15KT 11/M01 A2984 RMK A01 T01131013  RH  042%=      5-min Rain = 0
KPT1 090945Z 21008G13KT 11/M01 A2984 RMK A01 T01121013  RH  042%=      5-min Rain = 0
KPT1 090950Z 20008KT 11/M01 A2984 RMK A01 T01111012  RH  043%=      5-min Rain = 0
KPT1 090955Z 20007KT 11/M01 A2984 RMK A01 T01091012  RH  043%=      5-min Rain = 0
KPT1 091000Z 20008KT 11/M01 A2984 RMK A01 T01091012  RH  044%=      5-min Rain = 0
KPT1 091005Z 19007KT 11/M01 A2984 RMK A01 T01071012  RH  044%=      5-min Rain = 0
KPT1 091010Z 19006KT 11/M01 A2984 RMK A01 T01051012  RH  045%=      5-min Rain = 0
KPT1 091015Z 18007KT 10/M01 A2984 RMK A01 T01031012  RH  045%=      5-min Rain = 0
KPT1 091020Z 18006KT 10/M01 A2984 RMK A01 T01001012  RH  046%=      5-min Rain = 0
KPT1 091025Z 18007KT 10/M01 A2984 RMK A01 T01001011  RH  046%=      5-min Rain = 0
KPT1 091030Z 17006KT 10/M01 A2984 RMK A01 T00971012  RH  047%=      5-min Rain = 0
KPT1 091035Z 17006KT 10/M01 A2984 RMK A01 T00971011  RH  047%=      5-min Rain = 0
KPT1 091040Z 18007G12KT 10/M01 A2984 RMK A01 T00971010  RH  048%=      5-min Rain = 0
KPT1 091045Z 17007KT 10/M01 A2984 RMK A01 T00991010  RH  047%=      5-min Rain = 0
KPT1 091050Z 18007KT 10/M01 A2985 RMK A01 T00981010  RH  048%=      5-min Rain = 0
KPT1 091055Z 18007KT 10/M01 A2985 RMK A01 T00991009  RH  048%=      5-min Rain = 0
KPT1 091100Z 19006KT 10/M01 A2985 RMK A01 T00971009  RH  048%=      5-min Rain = 0
KPT1 091105Z 19007KT 10/M01 A2985 RMK A01 T00961009  RH  048%=      5-min Rain = 0
KPT1 091110Z 20007G12KT 09/M01 A2985 RMK A01 T00941009  RH  049%=      5-min Rain = 0
KPT1 091115Z 21009KT 10/M01 A2984 RMK A01 T00991007  RH  048%=      5-min Rain = 0
KPT1 091120Z 21008KT 10/M01 A2984 RMK A01 T00991007  RH  048%=      5-min Rain = 0
KPT1 091125Z 22008KT 10/M01 A2984 RMK A01 T00981007  RH  048%=      5-min Rain = 0
KPT1 091130Z 21009KT 10/M01 A2984 RMK A01 T00981007  RH  049%=      5-min Rain = 0
KPT1 091135Z 21008G13KT 10/M01 A2984 RMK A01 T00981007  RH  049%=      5-min Rain = 0
KPT1 091140Z 21007KT 10/M01 A2984 RMK A01 T00981006  RH  049%=      5-min Rain = 0
KPT1 091145Z 20005KT 10/M01 A2984 RMK A01 T00951007  RH  049%=      5-min Rain = 0
KPT1 091150Z 20003G8KT 09/M01 A2984 RMK A01 T00921007  RH  050%=      5-min Rain = 0
KPT1 091155Z 20005KT 09/M01 A2985 RMK A01 T00921007  RH  051%=      5-min Rain = 0
KPT1 091200Z 20005G10KT 09/M01 A2985 RMK A01 T00921006  RH  051%=      5-min Rain = 0
KPT1 091205Z 19004KT 09/M01 A2984 RMK A01 T00891007  RH  052%=      5-min Rain = 0
KPT1 091210Z 20003KT 09/M01 A2984 RMK A01 T00881006  RH  052%=      5-min Rain = 0
KPT1 091215Z 20004KT 09/M01 A2984 RMK A01 T00891006  RH  052%=      5-min Rain = 0
KPT1 091220Z 20004KT 09/M01 A2984 RMK A01 T00871006  RH  052%=      5-min Rain = 0
KPT1 091225Z 19002KT 09/M01 A2985 RMK A01 T00871006  RH  053%=      5-min Rain = 0
KPT1 091230Z 17002KT 08/M01 A2985 RMK A01 T00831008  RH  054%=      5-min Rain = 0
KPT1 091235Z 19002KT 08/M01 A2985 RMK A01 T00801007  RH  055%=      5-min Rain = 0
KPT1 091240Z 20003KT 08/M01 A2985 RMK A01 T00801007  RH  055%=      5-min Rain = 0
KPT1 091245Z 20004KT 08/M01 A2984 RMK A01 T00791008  RH  055%=      5-min Rain = 0
KPT1 091250Z 19004KT 08/M01 A2984 RMK A01 T00781007  RH  055%=      5-min Rain = 0
KPT1 091255Z 21003KT 08/M01 A2985 RMK A01 T00781007  RH  056%=      5-min Rain = 0
KPT1 091300Z 23002KT 08/M01 A2985 RMK A01 T00781007  RH  056%=      5-min Rain = 0
KPT1 091305Z 22003KT 08/M01 A2985 RMK A01 T00781007  RH  056%=      5-min Rain = 0
KPT1 091310Z 23003KT 08/M01 A2985 RMK A01 T00781006  RH  056%=      5-min Rain = 0
KPT1 091315Z 21004KT 08/M01 A2985 RMK A01 T00791007  RH  055%=      5-min Rain = 0
KPT1 091320Z 21005KT 08/M01 A2985 RMK A01 T00761007  RH  056%=      5-min Rain = 0
KPT1 091325Z 21006KT 08/M01 A2985 RMK A01 T00781006  RH  056%=      5-min Rain = 0
KPT1 091330Z 20006KT 08/M00 A2985 RMK A01 T00811004  RH  056%=      5-min Rain = 0
KPT1 091335Z 20006KT 08/M01 A2985 RMK A01 T00821005  RH  055%=      5-min Rain = 0
KPT1 091340Z 20005KT 08/M01 A2986 RMK A01 T00841005  RH  054%=      5-min Rain = 0
KPT1 091345Z 19004KT 09/M00 A2986 RMK A01 T00851004  RH  054%=      5-min Rain = 0
KPT1 091350Z 20005KT 09/M00 A2986 RMK A01 T00871004  RH  053%=      5-min Rain = 0
KPT1 091355Z 19004KT 09/M00 A2986 RMK A01 T00901004  RH  052%=      5-min Rain = 0
KPT1 091400Z 19005KT 09/M00 A2986 RMK A01 T00941004  RH  051%=      5-min Rain = 0
KPT1 091405Z 18004KT 10/M00 A2986 RMK A01 T00991004  RH  049%=      5-min Rain = 0
KPT1 091410Z 19004KT 10/M00 A2986 RMK A01 T01011003  RH  049%=      5-min Rain = 0
KPT1 091415Z 20003KT 10/M00 A2987 RMK A01 T01041003  RH  048%=      5-min Rain = 0
KPT1 091420Z 27002KT 11/M00 A2987 RMK A01 T01071003  RH  047%=      5-min Rain = 0
KPT1 091425Z 24001KT 11/M00 A2987 RMK A01 T01091002  RH  047%=      5-min Rain = 0
KPT1 091430Z 20003KT 11/00 A2987 RMK A01 T011300-0  RH  046%=      5-min Rain = 0
KPT1 091435Z 20004KT 12/00 A2987 RMK A01 T01180003  RH  046%=      5-min Rain = 0
KPT1 091440Z 21004KT 12/00 A2987 RMK A01 T01210004  RH  045%=      5-min Rain = 0
KPT1 091445Z 21007KT 12/01 A2987 RMK A01 T01210006  RH  046%=      5-min Rain = 0
KPT1 091450Z 20009KT 12/01 A2987 RMK A01 T01210006  RH  046%=      5-min Rain = 0
KPT1 091455Z 20008KT 12/01 A2986 RMK A01 T01240008  RH  046%=      5-min Rain = 0
KPT1 091500Z 20008KT 13/01 A2986 RMK A01 T01300010  RH  044%=      5-min Rain = 0
KPT1 091505Z 20011G18KT 13/01 A2986 RMK A01 T01320013  RH  045%=      5-min Rain = 0
KPT1 091510Z 21013G18KT 13/01 A2986 RMK A01 T01320014  RH  045%=      5-min Rain = 0
KPT1 091515Z 21012G17KT 13/01 A2986 RMK A01 T01330013  RH  044%=      5-min Rain = 0
KPT1 091520Z 22008G13KT 14/01 A2986 RMK A01 T01420013  RH  042%=      5-min Rain = 0
KPT1 091525Z 22010G17KT 14/01 A2986 RMK A01 T01440011  RH  041%=      5-min Rain = 0
KPT1 091530Z 22014G19KT 14/01 A2985 RMK A01 T01430010  RH  041%=      5-min Rain = 0
KPT1 091535Z 22013KT 15/01 A2985 RMK A01 T01450010  RH  040%=      5-min Rain = 0
KPT1 091540Z 22011KT 15/01 A2985 RMK A01 T01470009  RH  039%=      5-min Rain = 0
KPT1 091545Z 22011G16KT 15/01 A2985 RMK A01 T01520009  RH  038%=      5-min Rain = 0
KPT1 091550Z 22012G17KT 15/01 A2985 RMK A01 T01530010  RH  038%=      5-min Rain = 0
KPT1 091555Z 22012G17KT 16/01 A2985 RMK A01 T01590010  RH  037%=      5-min Rain = 0
KPT1 091600Z 22012KT 16/01 A2985 RMK A01 T01640010  RH  036%=      5-min Rain = 0
KPT1 091605Z 22011G16KT 17/01 A2985 RMK A01 T01660009  RH  035%=      5-min Rain = 0
KPT1 091610Z 21008G13KT 17/01 A2986 RMK A01 T01710010  RH  034%=      5-min Rain = 0
KPT1 091615Z 21008KT 17/01 A2986 RMK A01 T01710009  RH  034%=      5-min Rain = 0
KPT1 091620Z 21006KT 17/01 A2986 RMK A01 T01740008  RH  033%=      5-min Rain = 0
KPT1 091625Z 21008G13KT 18/01 A2986 RMK A01 T01770007  RH  032%=      5-min Rain = 0
KPT1 091630Z 21008G13KT 18/01 A2985 RMK A01 T01820005  RH  031%=      5-min Rain = 0
KPT1 091635Z 21007KT 19/01 A2985 RMK A01 T01900005  RH  029%=      5-min Rain = 0
KPT1 091640Z 21007G12KT 19/00 A2985 RMK A01 T01900002  RH  028%=      5-min Rain = 0
KPT1 091645Z 24006KT 19/M00 A2985 RMK A01 T01921001  RH  028%=      5-min Rain = 0
KPT1 091650Z 23004KT 19/M00 A2985 RMK A01 T01941001  RH  027%=      5-min Rain = 0
KPT1 091655Z 23005KT 20/M00 A2985 RMK A01 T01971003  RH  026%=      5-min Rain = 0
KPT1 091700Z 23010KT 20/M01 A2985 RMK A01 T02001007  RH  025%=      5-min Rain = 0
KPT1 091705Z 23009KT 20/M01 A2984 RMK A01 T02041008  RH  024%=      5-min Rain = 0
KPT1 091710Z 21008KT 21/M01 A2984 RMK A01 T02051011  RH  024%=      5-min Rain = 0
KPT1 091715Z 22009KT 21/M01 A2984 RMK A01 T02071013  RH  023%=      5-min Rain = 0
KPT1 091720Z 23008KT 21/M02 A2984 RMK A01 T02061016  RH  023%=      5-min Rain = 0
KPT1 091725Z 24007G12KT 21/M03 A2984 RMK A01 T02121025  RH  020%=      5-min Rain = 0
KPT1 091730Z 25006G11KT 22/M03 A2984 RMK A01 T02181031  RH  019%=      5-min Rain = 0
KPT1 091735Z 25007G12KT 22/M03 A2983 RMK A01 T02231033  RH  018%=      5-min Rain = 0
KPT1 091740Z 25008KT 22/M04 A2983 RMK A01 T02211040  RH  017%=      5-min Rain = 0
KPT1 091745Z 23008KT 23/M03 A2983 RMK A01 T02321033  RH  017%=      5-min Rain = 0
KPT1 091750Z 22008G13KT 23/M03 A2983 RMK A01 T02291030  RH  018%=      5-min Rain = 0
KPT1 091755Z 25007KT 24/M03 A2983 RMK A01 T02381034  RH  016%=      5-min Rain = 0
KPT1 091800Z 22007G12KT 24/M03 A2983 RMK A01 T02391032  RH  016%=      5-min Rain = 0
KPT1 091805Z 23010KT 23/M04 A2982 RMK A01 T02321035  RH  017%=      5-min Rain = 0
KPT1 091810Z 23008KT 23/M04 A2982 RMK A01 T02311036  RH  017%=      5-min Rain = 0
KPT1 091815Z 23008KT 23/M04 A2982 RMK A01 T02291039  RH  017%=      5-min Rain = 0
KPT1 091820Z 24005G10KT 23/M05 A2982 RMK A01 T02341045  RH  015%=      5-min Rain = 0
KPT1 091825Z 24007KT 24/M05 A2981 RMK A01 T02381046  RH  015%=      5-min Rain = 0
KPT1 091830Z 23005KT 24/M05 A2981 RMK A01 T02371051  RH  014%=      5-min Rain = 0
KPT1 091835Z 23007KT 24/M05 A2981 RMK A01 T02371053  RH  014%=      5-min Rain = 0
KPT1 091840Z 24007KT 24/M06 A298 RMK A01 T02371055  RH  014%=      5-min Rain = 0
KPT1 091845Z 26007G12KT 24/M06 A298 RMK A01 T02391059  RH  013%=      5-min Rain = 0
KPT1 091850Z 25007G12KT 24/M06 A298 RMK A01 T02401061  RH  013%=      5-min Rain = 0
KPT1 091855Z 24008KT 24/M06 A298 RMK A01 T02381058  RH  014%=      5-min Rain = 0
KPT1 091900Z 23006KT 24/M06 A298 RMK A01 T02401055  RH  014%=      5-min Rain = 0
KPT1 091905Z 24007KT 24/M06 A2979 RMK A01 T02431062  RH  013%=      5-min Rain = 0
KPT1 091910Z 25007KT 24/M07 A2979 RMK A01 T02431069  RH  012%=      5-min Rain = 0
KPT1 091915Z 25008KT 25/M07 A2979 RMK A01 T02501071  RH  011%=      5-min Rain = 0
KPT1 091920Z 26007KT 25/M07 A2979 RMK A01 T02491073  RH  011%=      5-min Rain = 0
KPT1 091925Z 25006KT 25/M07 A2978 RMK A01 T02501070  RH  012%=      5-min Rain = 0
KPT1 091930Z 24006KT 25/M08 A2978 RMK A01 T02511075  RH  011%=      5-min Rain = 0
KPT1 091935Z 24007KT 25/M08 A2978 RMK A01 T02531080  RH  011%=      5-min Rain = 0
KPT1 091940Z 25005KT 25/M08 A2977 RMK A01 T02531080  RH  011%=      5-min Rain = 0
KPT1 091945Z 23003G8KT 25/M08 A2977 RMK A01 T02541081  RH  010%=      5-min Rain = 0
KPT1 091950Z 23007KT 26/M09 A2977 RMK A01 T02611093  RH  009%=      5-min Rain = 0
KPT1 091955Z 22005KT 26/M09 A2976 RMK A01 T02641093  RH  009%=      5-min Rain = 0
KPT1 092000Z 20003G8KT 26/M09 A2976 RMK A01 T02641091  RH  009%=      5-min Rain = 0
KPT1 092005Z 25004G9KT 27/M10 A2976 RMK A01 T02671096  RH  009%=      5-min Rain = 0
KPT1 092010Z 24008G16KT 27/M11 A2976 RMK A01 T02721107  RH  008%=      5-min Rain = 0
KPT1 092015Z 26008G13KT 27/M11 A2975 RMK A01 T02741112  RH  007%=      5-min Rain = 0
KPT1 092020Z 27007KT 27/M11 A2975 RMK A01 T02731113  RH  007%=      5-min Rain = 0
KPT1 092025Z 25007G13KT 28/M12 A2975 RMK A01 T02751116  RH  007%=      5-min Rain = 0
KPT1 092030Z 25005KT 27/M13 A2975 RMK A01 T02691125  RH  007%=      5-min Rain = 0
KPT1 092035Z 23009G15KT 27/M13 A2974 RMK A01 T02711132  RH  006%=      5-min Rain = 0
KPT1 092040Z 25009KT 27/M13 A2974 RMK A01 T02741129  RH  006%=      5-min Rain = 0
KPT1 092045Z 24011KT 27/M13 A2974 RMK A01 T02711129  RH  006%=      5-min Rain = 0
KPT1 092050Z 21009KT 27/M13 A2974 RMK A01 T02721129  RH  006%=      5-min Rain = 0
KPT1 092055Z 21007KT 27/M13 A2974 RMK A01 T02701127  RH  007%=      5-min Rain = 0
KPT1 092100Z 22008KT 27/M13 A2974 RMK A01 T02711127  RH  007%=      5-min Rain = 0
KPT1 092105Z 20006KT 27/M13 A2974 RMK A01 T02701127  RH  007%=      5-min Rain = 0
KPT1 092110Z 20006KT 27/M13 A2974 RMK A01 T02731126  RH  007%=      5-min Rain = 0
KPT1 092115Z 20008KT 27/M12 A2973 RMK A01 T02711115  RH  007%=      5-min Rain = 0
KPT1 092120Z 18009KT 27/M12 A2973 RMK A01 T02701118  RH  007%=      5-min Rain = 0
KPT1 092125Z 21010G17KT 27/M12 A2973 RMK A01 T02701120  RH  007%=      5-min Rain = 0
KPT1 092130Z 21010KT 27/M12 A2973 RMK A01 T02711118  RH  007%=      5-min Rain = 0
KPT1 092135Z 23008KT 27/M12 A2973 RMK A01 T02741115  RH  007%=      5-min Rain = 0
KPT1 092140Z 21011G16KT 27/M12 A2973 RMK A01 T02741118  RH  007%=      5-min Rain = 0
KPT1 092145Z 23011G18KT 27/M12 A2973 RMK A01 T02741124  RH  007%=      5-min Rain = 0
KPT1 092150Z 22011G16KT 27/M13 A2973 RMK A01 T02731125  RH  007%=      5-min Rain = 0
KPT1 092155Z 23009KT 27/M13 A2972 RMK A01 T02731126  RH  007%=      5-min Rain = 0
KPT1 092200Z 24010G15KT 28/M13 A2972 RMK A01 T02771134  RH  006%=      5-min Rain = 0
KPT1 092205Z 24013G19KT 28/M14 A2972 RMK A01 T02781139  RH  006%=      5-min Rain = 0
KPT1 092210Z 24011KT 28/M14 A2972 RMK A01 T02791138  RH  006%=      5-min Rain = 0
KPT1 092215Z 24009KT 28/M14 A2972 RMK A01 T02761140  RH  006%=      5-min Rain = 0
KPT1 092220Z 26011G19KT 28/M15 A2971 RMK A01 T02771148  RH  005%=      5-min Rain = 0
KPT1 092225Z 25010KT 27/M15 A2971 RMK A01 T02741154  RH  005%=      5-min Rain = 0
KPT1 092230Z 24011G17KT 28/M16 A2971 RMK A01 T02831155  RH  005%=      5-min Rain = 0
KPT1 092235Z 23013G19KT 29/M16 A2971 RMK A01 T02861156  RH  005%=      5-min Rain = 0
KPT1 092240Z 24013G18KT 28/M15 A297 RMK A01 T02771151  RH  005%=      5-min Rain = 0
KPT1 092245Z 22014G19KT 28/M15 A2971 RMK A01 T02751151  RH  005%=      5-min Rain = 0
KPT1 092250Z 24013G19KT 28/M16 A2971 RMK A01 T02791156  RH  005%=      5-min Rain = 0
KPT1 092255Z 26012G17KT 28/M16 A2971 RMK A01 T02781157  RH  005%=      5-min Rain = 0
KPT1 092300Z 25014G20KT 28/M16 A2971 RMK A01 T02801158  RH  005%=      5-min Rain = 0
KPT1 092305Z 24014G20KT 28/M16 A297 RMK A01 T02781158  RH  005%=      5-min Rain = 0
KPT1 092310Z 24016KT 27/M16 A297 RMK A01 T02741161  RH  005%=      5-min Rain = 0
KPT1 092315Z 24015G22KT 27/M17 A297 RMK A01 T02731170  RH  005%=      5-min Rain = 0
KPT1 092320Z 25017G23KT 27/M17 A297 RMK A01 T02711174  RH  004%=      5-min Rain = 0
KPT1 092325Z 24016G21KT 27/M18 A297 RMK A01 T02721175  RH  004%=      5-min Rain = 0
KPT1 092330Z 24016G22KT 27/M18 A297 RMK A01 T02721180  RH  004%=      5-min Rain = 0
KPT1 092335Z 24015KT 27/M19 A2971 RMK A01 T02721187  RH  004%=      5-min Rain = 0
KPT1 092340Z 25015KT 27/M19 A2971 RMK A01 T02681188  RH  004%=      5-min Rain = 0
KPT1 092345Z 26014KT 27/M19 A2971 RMK A01 T02681189  RH  004%=      5-min Rain = 0
KPT1 092350Z 26014KT 26/M19 A2971 RMK A01 T02611189  RH  004%=      5-min Rain = 0
KPT1 092355Z 27012KT 26/M19 A2971 RMK A01 T02581191  RH  004%=      5-min Rain = 0
KPT1 100000Z 27012KT 26/M19 A2971 RMK A01 T02551191  RH  004%=      5-min Rain = 0
KPT1 100005Z 26011KT 25/M19 A2971 RMK A01 T02511190  RH  004%=      5-min Rain = 0
KPT1 100010Z 26009KT 25/M19 A2971 RMK A01 T02481190  RH  004%=      5-min Rain = 0
KPT1 100015Z 26009KT 24/M18 A2972 RMK A01 T02441184  RH  005%=      5-min Rain = 0
KPT1 100020Z 26009KT 24/M18 A2972 RMK A01 T02431182  RH  005%=      5-min Rain = 0
KPT1 100025Z 27008KT 24/M18 A2972 RMK A01 T02421182  RH  005%=      5-min Rain = 0
KPT1 100030Z 27009KT 24/M18 A2972 RMK A01 T02411184  RH  005%=      5-min Rain = 0
KPT1 100035Z 26008KT 24/M19 A2972 RMK A01 T02401188  RH  005%=      5-min Rain = 0
KPT1 100040Z 26010KT 24/M19 A2972 RMK A01 T02371190  RH  005%=      5-min Rain = 0
KPT1 100045Z 26010KT 24/M19 A2972 RMK A01 T02351192  RH  005%=      5-min Rain = 0
KPT1 100050Z 26011KT 24/M19 A2972 RMK A01 T02361191  RH  005%=      5-min Rain = 0
KPT1 100055Z 26009KT 24/M19 A2972 RMK A01 T02351187  RH  005%=      5-min Rain = 0
KPT1 100100Z 27009KT 23/M18 A2972 RMK A01 T02341183  RH  005%=      5-min Rain = 0
KPT1 100105Z 28009KT 23/M18 A2972 RMK A01 T02311177  RH  006%=      5-min Rain = 0
KPT1 100110Z 28008KT 23/M17 A2972 RMK A01 T02291172  RH  006%=      5-min Rain = 0
KPT1 100115Z 28008KT 23/M17 A2972 RMK A01 T02261170  RH  006%=      5-min Rain = 0
KPT1 100120Z 28008KT 22/M17 A2972 RMK A01 T02241168  RH  006%=      5-min Rain = 0
KPT1 100125Z 28009KT 22/M17 A2973 RMK A01 T02241166  RH  006%=      5-min Rain = 0
KPT1 100130Z 29008KT 22/M17 A2973 RMK A01 T02241166  RH  006%=      5-min Rain = 0
KPT1 100135Z 28008KT 22/M16 A2974 RMK A01 T02211162  RH  007%=      5-min Rain = 0
KPT1 100140Z 28007KT 22/M16 A2974 RMK A01 T02201161  RH  007%=      5-min Rain = 0
KPT1 100145Z 28007KT 22/M16 A2974 RMK A01 T02181160  RH  007%=      5-min Rain = 0
KPT1 100150Z 27006KT 22/M16 A2974 RMK A01 T02181160  RH  007%=      5-min Rain = 0
KPT1 100155Z 25005KT 21/M16 A2974 RMK A01 T02131158  RH  007%=      5-min Rain = 0
KPT1 100200Z 26006KT 21/M16 A2975 RMK A01 T02061155  RH  008%=      5-min Rain = 0
KPT1 100205Z 26007KT 20/M15 A2975 RMK A01 T02011152  RH  008%=      5-min Rain = 0
KPT1 100210Z 25007KT 20/M15 A2975 RMK A01 T01981151  RH  008%=      5-min Rain = 0
KPT1 100215Z 25007KT 20/M15 A2975 RMK A01 T01971152  RH  008%=      5-min Rain = 0
KPT1 100220Z 25006KT 20/M15 A2975 RMK A01 T01961152  RH  008%=      5-min Rain = 0
KPT1 100225Z 25006KT 20/M15 A2975 RMK A01 T02001154  RH  008%=      5-min Rain = 0
KPT1 100230Z 26008KT 20/M15 A2975 RMK A01 T01961152  RH  008%=      5-min Rain = 0
KPT1 100235Z 27007KT 19/M15 A2975 RMK A01 T01941152  RH  009%=      5-min Rain = 0
KPT1 100240Z 27008KT 19/M15 A2976 RMK A01 T01941150  RH  009%=      5-min Rain = 0
KPT1 100245Z 28007KT 20/M15 A2976 RMK A01 T01961149  RH  009%=      5-min Rain = 0
KPT1 100250Z 34009G14KT 19/M15 A2977 RMK A01 T01911148  RH  009%=      5-min Rain = 0
KPT1 100255Z 35006KT 18/M14 A2977 RMK A01 T01801144  RH  010%=      5-min Rain = 0
KPT1 100300Z 33006KT 18/M14 A2977 RMK A01 T01781138  RH  011%=      5-min Rain = 0
KPT1 100305Z 02008KT 18/M13 A2978 RMK A01 T01811134  RH  011%=      5-min Rain = 0
KPT1 100310Z 02008KT 20/M13 A2978 RMK A01 T01961130  RH  010%=      5-min Rain = 0
KPT1 100315Z 35006KT 19/M12 A2978 RMK A01 T01901123  RH  011%=      5-min Rain = 0
KPT1 100320Z 35007KT 18/M12 A2978 RMK A01 T01831119  RH  012%=      5-min Rain = 0
KPT1 100325Z 35007KT 18/M12 A2979 RMK A01 T01821122  RH  012%=      5-min Rain = 0
KPT1 100330Z 36007KT 19/M12 A2979 RMK A01 T01851119  RH  012%=      5-min Rain = 0
KPT1 100335Z 01009KT 19/M11 A2979 RMK A01 T01871112  RH  012%=      5-min Rain = 0
KPT1 100340Z 36007G12KT 18/M11 A2979 RMK A01 T01841111  RH  013%=      5-min Rain = 0
KPT1 100345Z 35008KT 18/M11 A2979 RMK A01 T01821111  RH  013%=      5-min Rain = 0
KPT1 100350Z 35007KT 18/M11 A298 RMK A01 T01801110  RH  013%=      5-min Rain = 0
KPT1 100355Z 34007KT 18/M11 A298 RMK A01 T01751106  RH  014%=      5-min Rain = 0
KPT1 100400Z 35007KT 18/M10 A298 RMK A01 T01761104  RH  014%=      5-min Rain = 0
KPT1 100405Z 00007KT 18/M11 A298 RMK A01 T01751108  RH  014%=      5-min Rain = 0
KPT1 100410Z 00007KT 17/M11 A298 RMK A01 T01741109  RH  014%=      5-min Rain = 0
KPT1 100415Z 36007KT 17/M11 A298 RMK A01 T01721109  RH  014%=      5-min Rain = 0
KPT1 100420Z 36007KT 17/M11 A298 RMK A01 T01741109  RH  014%=      5-min Rain = 0
KPT1 100425Z 34006KT 17/M11 A298 RMK A01 T01671110  RH  014%=      5-min Rain = 0
KPT1 100430Z 35006KT 16/M10 A298 RMK A01 T01611104  RH  015%=      5-min Rain = 0
KPT1 100435Z 34006KT 16/M11 A298 RMK A01 T01581107  RH  015%=      5-min Rain = 0
KPT1 100440Z 32006KT 15/M11 A298 RMK A01 T01501113  RH  015%=      5-min Rain = 0
KPT1 100445Z 34006KT 15/M12 A298 RMK A01 T01491117  RH  015%=      5-min Rain = 0
KPT1 100450Z 34006KT 15/M12 A2981 RMK A01 T01451116  RH  015%=      5-min Rain = 0
KPT1 100455Z 33006KT 14/M12 A2981 RMK A01 T01401116  RH  016%=      5-min Rain = 0
KPT1 100500Z 32006KT 14/M12 A2981 RMK A01 T01371118  RH  016%=      5-min Rain = 0
KPT1 100505Z 35006KT 14/M12 A298 RMK A01 T01381117  RH  016%=      5-min Rain = 0
KPT1 100510Z 35006KT 15/M11 A298 RMK A01 T01461113  RH  016%=      5-min Rain = 0
KPT1 100515Z 33007KT 13/M11 A2981 RMK A01 T01321113  RH  017%=      5-min Rain = 0
KPT1 100520Z 34006KT 13/M12 A2982 RMK A01 T01301115  RH  017%=      5-min Rain = 0
KPT1 100525Z 33006KT 13/M11 A2981 RMK A01 T01261113  RH  018%=      5-min Rain = 0
KPT1 100530Z 32005KT 13/M11 A2981 RMK A01 T01251113  RH  018%=      5-min Rain = 0
KPT1 100535Z 31005KT 12/M12 A2982 RMK A01 T01231116  RH  018%=      5-min Rain = 0
KPT1 100540Z 32006KT 12/M12 A2982 RMK A01 T01211116  RH  018%=      5-min Rain = 0
KPT1 100545Z 34008KT 12/M11 A2981 RMK A01 T01201112  RH  019%=      5-min Rain = 0
KPT1 100550Z 34007KT 13/M11 A2982 RMK A01 T01271107  RH  019%=      5-min Rain = 0
KPT1 100555Z 33005KT 13/M10 A2982 RMK A01 T01271104  RH  019%=      5-min Rain = 0

Page generated in 0.0094 seconds.